sensor_id;sensor_type;location;lat;lon;timestamp;pressure;altitude;pressure_sealevel;temperature;humidity
3250;BME280;1637;42.020;23.992;2023-12-20T00:00:29;93124.34;;;-2.34;100.00
3250;BME280;1637;42.020;23.992;2023-12-20T00:02:56;93127.78;;;-2.51;100.00
3250;BME280;1637;42.020;23.992;2023-12-20T00:05:23;93126.88;;;-2.98;100.00
3250;BME280;1637;42.020;23.992;2023-12-20T00:07:50;93111.00;;;-2.93;100.00
3250;BME280;1637;42.020;23.992;2023-12-20T00:10:17;93120.06;;;-2.64;100.00
3250;BME280;1637;42.020;23.992;2023-12-20T00:12:45;93122.66;;;-2.30;100.00
3250;BME280;1637;42.020;23.992;2023-12-20T00:15:12;93122.53;;;-2.51;100.00
3250;BME280;1637;42.020;23.992;2023-12-20T00:17:39;93161.25;;;-2.56;100.00
3250;BME280;1637;42.020;23.992;2023-12-20T00:20:07;93110.38;;;-2.72;100.00
3250;BME280;1637;42.020;23.992;2023-12-20T00:22:33;93104.19;;;-2.59;100.00
3250;BME280;1637;42.020;23.992;2023-12-20T00:25:00;93108.19;;;-2.53;100.00
3250;BME280;1637;42.020;23.992;2023-12-20T00:27:27;93095.09;;;-2.62;100.00
3250;BME280;1637;42.020;23.992;2023-12-20T00:29:55;93110.31;;;-2.38;100.00
3250;BME280;1637;42.020;23.992;2023-12-20T00:32:22;93100.28;;;-2.36;100.00
3250;BME280;1637;42.020;23.992;2023-12-20T00:34:48;93093.19;;;-2.44;100.00
3250;BME280;1637;42.020;23.992;2023-12-20T00:37:15;93093.50;;;-2.46;100.00
3250;BME280;1637;42.020;23.992;2023-12-20T00:39:42;93076.72;;;-2.53;100.00
3250;BME280;1637;42.020;23.992;2023-12-20T00:42:09;93083.19;;;-2.59;100.00
3250;BME280;1637;42.020;23.992;2023-12-20T00:44:36;93085.69;;;-2.71;100.00
3250;BME280;1637;42.020;23.992;2023-12-20T00:47:04;93079.53;;;-2.84;100.00
3250;BME280;1637;42.020;23.992;2023-12-20T00:49:31;93069.97;;;-2.71;100.00
3250;BME280;1637;42.020;23.992;2023-12-20T00:51:58;93075.69;;;-2.78;100.00
3250;BME280;1637;42.020;23.992;2023-12-20T00:54:24;93067.53;;;-3.02;100.00
3250;BME280;1637;42.020;23.992;2023-12-20T00:56:51;93063.84;;;-2.93;100.00
3250;BME280;1637;42.020;23.992;2023-12-20T00:59:19;93058.44;;;-3.14;100.00
3250;BME280;1637;42.020;23.992;2023-12-20T01:01:45;93056.75;;;-3.01;100.00
3250;BME280;1637;42.020;23.992;2023-12-20T01:04:14;93044.09;;;-2.99;100.00
3250;BME280;1637;42.020;23.992;2023-12-20T01:06:40;93059.66;;;-3.02;100.00
3250;BME280;1637;42.020;23.992;2023-12-20T01:09:07;93054.28;;;-3.23;100.00
3250;BME280;1637;42.020;23.992;2023-12-20T01:11:34;93045.47;;;-3.10;100.00
3250;BME280;1637;42.020;23.992;2023-12-20T01:14:00;93051.66;;;-3.32;100.00
3250;BME280;1637;42.020;23.992;2023-12-20T01:16:27;93049.97;;;-3.19;100.00
3250;BME280;1637;42.020;23.992;2023-12-20T01:18:54;93046.06;;;-3.73;100.00
3250;BME280;1637;42.020;23.992;2023-12-20T01:21:22;93044.09;;;-3.59;100.00
3250;BME280;1637;42.020;23.992;2023-12-20T01:23:49;93043.97;;;-3.54;100.00
3250;BME280;1637;42.020;23.992;2023-12-20T01:26:16;93036.69;;;-3.74;100.00
3250;BME280;1637;42.020;23.992;2023-12-20T01:28:42;93042.53;;;-3.52;100.00
3250;BME280;1637;42.020;23.992;2023-12-20T01:31:09;93040.41;;;-3.50;100.00
3250;BME280;1637;42.020;23.992;2023-12-20T01:33:36;93027.63;;;-3.60;100.00
3250;BME280;1637;42.020;23.992;2023-12-20T01:36:03;93019.88;;;-3.73;100.00
3250;BME280;1637;42.020;23.992;2023-12-20T01:38:32;93019.47;;;-3.15;100.00
3250;BME280;1637;42.020;23.992;2023-12-20T01:40:58;93022.38;;;-3.51;100.00
3250;BME280;1637;42.020;23.992;2023-12-20T01:43:25;93017.00;;;-3.63;100.00
3250;BME280;1637;42.020;23.992;2023-12-20T01:45:52;93013.75;;;-3.60;100.00
3250;BME280;1637;42.020;23.992;2023-12-20T01:48:19;93005.56;;;-3.85;100.00
3250;BME280;1637;42.020;23.992;2023-12-20T01:50:47;93002.97;;;-3.67;100.00
3250;BME280;1637;42.020;23.992;2023-12-20T01:53:15;92965.06;;;-4.04;100.00
3250;BME280;1637;42.020;23.992;2023-12-20T01:55:44;93002.97;;;-3.76;100.00
3250;BME280;1637;42.020;23.992;2023-12-20T01:58:12;92995.72;;;-3.88;100.00
3250;BME280;1637;42.020;23.992;2023-12-20T02:00:40;92985.72;;;-3.86;100.00
3250;BME280;1637;42.020;23.992;2023-12-20T02:03:07;92960.78;;;-4.00;100.00
3250;BME280;1637;42.020;23.992;2023-12-20T02:05:35;92976.78;;;-4.02;100.00
3250;BME280;1637;42.020;23.992;2023-12-20T02:08:02;92973.41;;;-3.76;100.00
3250;BME280;1637;42.020;23.992;2023-12-20T02:10:31;92977.88;;;-3.77;100.00
3250;BME280;1637;42.020;23.992;2023-12-20T02:12:59;92971.13;;;-3.78;100.00
3250;BME280;1637;42.020;23.992;2023-12-20T02:15:26;92973.09;;;-3.92;100.00
3250;BME280;1637;42.020;23.992;2023-12-20T02:17:53;92965.84;;;-4.04;100.00
3250;BME280;1637;42.020;23.992;2023-12-20T02:20:21;92975.56;;;-3.87;100.00
3250;BME280;1637;42.020;23.992;2023-12-20T02:22:49;92963.97;;;-4.12;100.00
3250;BME280;1637;42.020;23.992;2023-12-20T02:25:15;92964.16;;;-4.00;100.00
3250;BME280;1637;42.020;23.992;2023-12-20T02:27:42;92960.28;;;-4.20;100.00
3250;BME280;1637;42.020;23.992;2023-12-20T02:30:10;92955.03;;;-4.28;100.00
3250;BME280;1637;42.020;23.992;2023-12-20T02:32:37;92914.38;;;-4.60;100.00
3250;BME280;1637;42.020;23.992;2023-12-20T02:35:04;92954.91;;;-4.06;100.00
3250;BME280;1637;42.020;23.992;2023-12-20T02:37:31;92954.00;;;-3.93;100.00
3250;BME280;1637;42.020;23.992;2023-12-20T02:40:00;92958.34;;;-3.79;100.00
3250;BME280;1637;42.020;23.992;2023-12-20T02:42:27;92948.63;;;-3.96;100.00
3250;BME280;1637;42.020;23.992;2023-12-20T02:44:53;92948.13;;;-4.16;100.00
3250;BME280;1637;42.020;23.992;2023-12-20T02:47:20;92942.44;;;-4.18;100.00
3250;BME280;1637;42.020;23.992;2023-12-20T02:49:47;92936.75;;;-4.20;100.00
3250;BME280;1637;42.020;23.992;2023-12-20T02:52:14;92934.44;;;-4.21;100.00
3250;BME280;1637;42.020;23.992;2023-12-20T02:54:41;92933.81;;;-4.09;100.00
3250;BME280;1637;42.020;23.992;2023-12-20T02:57:08;92910.13;;;-4.22;100.00
3250;BME280;1637;42.020;23.992;2023-12-20T02:59:35;92932.88;;;-4.31;100.00
3250;BME280;1637;42.020;23.992;2023-12-20T03:02:01;92933.81;;;-4.27;100.00
3250;BME280;1637;42.020;23.992;2023-12-20T03:04:28;92924.00;;;-4.04;100.00
3250;BME280;1637;42.020;23.992;2023-12-20T03:06:55;92921.84;;;-3.93;100.00
3250;BME280;1637;42.020;23.992;2023-12-20T03:09:22;92906.78;;;-3.96;100.00
3250;BME280;1637;42.020;23.992;2023-12-20T03:11:48;92922.38;;;-4.48;100.00
3250;BME280;1637;42.020;23.992;2023-12-20T03:14:16;92917.03;;;-4.43;100.00
3250;BME280;1637;42.020;23.992;2023-12-20T03:16:46;92904.78;;;-4.73;100.00
3250;BME280;1637;42.020;23.992;2023-12-20T03:19:14;92915.13;;;-4.51;100.00
3250;BME280;1637;42.020;23.992;2023-12-20T03:21:41;92916.41;;;-4.40;100.00
3250;BME280;1637;42.020;23.992;2023-12-20T03:24:08;92919.53;;;-4.21;100.00
3250;BME280;1637;42.020;23.992;2023-12-20T03:26:34;92912.53;;;-4.51;100.00
3250;BME280;1637;42.020;23.992;2023-12-20T03:29:02;92913.97;;;-4.10;100.00
3250;BME280;1637;42.020;23.992;2023-12-20T03:31:30;92911.94;;;-4.31;100.00
3250;BME280;1637;42.020;23.992;2023-12-20T03:33:57;92904.31;;;-4.01;100.00
3250;BME280;1637;42.020;23.992;2023-12-20T03:36:24;92900.31;;;-4.16;100.00
3250;BME280;1637;42.020;23.992;2023-12-20T03:38:51;92880.75;;;-4.27;100.00
3250;BME280;1637;42.020;23.992;2023-12-20T03:41:17;92894.75;;;-4.15;100.00
3250;BME280;1637;42.020;23.992;2023-12-20T03:43:44;92893.34;;;-4.12;100.00
3250;BME280;1637;42.020;23.992;2023-12-20T03:46:11;92898.44;;;-4.24;100.00
3250;BME280;1637;42.020;23.992;2023-12-20T03:48:39;92897.81;;;-4.30;100.00
3250;BME280;1637;42.020;23.992;2023-12-20T03:51:06;92899.81;;;-4.09;100.00
3250;BME280;1637;42.020;23.992;2023-12-20T03:53:33;92890.28;;;-4.23;100.00
3250;BME280;1637;42.020;23.992;2023-12-20T03:55:59;92894.44;;;-4.22;100.00
3250;BME280;1637;42.020;23.992;2023-12-20T03:58:26;92884.44;;;-4.28;100.00
3250;BME280;1637;42.020;23.992;2023-12-20T04:00:53;92892.59;;;-4.38;100.00
3250;BME280;1637;42.020;23.992;2023-12-20T04:03:20;92892.84;;;-4.48;100.00
3250;BME280;1637;42.020;23.992;2023-12-20T04:05:48;92886.72;;;-4.44;100.00
3250;BME280;1637;42.020;23.992;2023-12-20T04:08:14;92877.06;;;-4.26;100.00
3250;BME280;1637;42.020;23.992;2023-12-20T04:10:41;92884.75;;;-4.38;100.00
3250;BME280;1637;42.020;23.992;2023-12-20T04:13:08;92877.97;;;-4.13;100.00
3250;BME280;1637;42.020;23.992;2023-12-20T04:15:35;92877.03;;;-4.43;100.00
3250;BME280;1637;42.020;23.992;2023-12-20T04:18:02;92863.78;;;-4.56;100.00
3250;BME280;1637;42.020;23.992;2023-12-20T04:20:29;92888.09;;;-4.46;100.00
3250;BME280;1637;42.020;23.992;2023-12-20T04:22:57;92872.25;;;-4.59;100.00
3250;BME280;1637;42.020;23.992;2023-12-20T04:25:23;92868.06;;;-4.68;100.00
3250;BME280;1637;42.020;23.992;2023-12-20T04:27:50;92866.09;;;-4.54;100.00
3250;BME280;1637;42.020;23.992;2023-12-20T04:30:17;92858.91;;;-5.05;100.00
3250;BME280;1637;42.020;23.992;2023-12-20T04:32:44;92855.53;;;-5.06;100.00
3250;BME280;1637;42.020;23.992;2023-12-20T04:35:10;92859.47;;;-5.17;100.00
3250;BME280;1637;42.020;23.992;2023-12-20T04:37:37;92847.38;;;-5.04;100.00
3250;BME280;1637;42.020;23.992;2023-12-20T04:40:07;92858.25;;;-4.63;100.00
3250;BME280;1637;42.020;23.992;2023-12-20T04:42:33;92860.75;;;-4.97;100.00
3250;BME280;1637;42.020;23.992;2023-12-20T04:45:00;92843.59;;;-5.29;100.00
3250;BME280;1637;42.020;23.992;2023-12-20T04:47:27;92847.03;;;-4.63;100.00
3250;BME280;1637;42.020;23.992;2023-12-20T04:49:54;92846.41;;;-4.60;100.00
3250;BME280;1637;42.020;23.992;2023-12-20T04:52:21;92847.56;;;-5.01;100.00
3250;BME280;1637;42.020;23.992;2023-12-20T04:54:47;92805.66;;;-5.35;100.00
3250;BME280;1637;42.020;23.992;2023-12-20T04:57:16;92848.41;;;-5.14;100.00
3250;BME280;1637;42.020;23.992;2023-12-20T04:59:42;92848.69;;;-4.76;100.00
3250;BME280;1637;42.020;23.992;2023-12-20T05:02:09;92849.31;;;-4.79;100.00
3250;BME280;1637;42.020;23.992;2023-12-20T05:04:37;92834.25;;;-4.82;100.00
3250;BME280;1637;42.020;23.992;2023-12-20T05:07:03;92839.72;;;-4.92;100.00
3250;BME280;1637;42.020;23.992;2023-12-20T05:09:31;92836.84;;;-4.73;100.00
3250;BME280;1637;42.020;23.992;2023-12-20T05:11:58;92833.63;;;-4.70;100.00
3250;BME280;1637;42.020;23.992;2023-12-20T05:14:27;92819.81;;;-4.71;100.00
3250;BME280;1637;42.020;23.992;2023-12-20T05:16:54;92816.44;;;-4.54;100.00
3250;BME280;1637;42.020;23.992;2023-12-20T05:19:20;92810.59;;;-4.60;100.00
3250;BME280;1637;42.020;23.992;2023-12-20T05:21:47;92821.50;;;-4.66;100.00
3250;BME280;1637;42.020;23.992;2023-12-20T05:24:14;92806.09;;;-4.76;100.00
3250;BME280;1637;42.020;23.992;2023-12-20T05:26:41;92817.97;;;-4.79;100.00
3250;BME280;1637;42.020;23.992;2023-12-20T05:29:08;92817.84;;;-4.48;100.00
3250;BME280;1637;42.020;23.992;2023-12-20T05:31:36;92799.06;;;-4.67;100.00
3250;BME280;1637;42.020;23.992;2023-12-20T05:34:03;92806.91;;;-4.59;100.00
3250;BME280;1637;42.020;23.992;2023-12-20T05:36:29;92762.13;;;-5.09;100.00
3250;BME280;1637;42.020;23.992;2023-12-20T05:38:57;92801.00;;;-4.99;100.00
3250;BME280;1637;42.020;23.992;2023-12-20T05:41:23;92805.78;;;-5.01;100.00
3250;BME280;1637;42.020;23.992;2023-12-20T05:43:50;92805.31;;;-5.03;100.00
3250;BME280;1637;42.020;23.992;2023-12-20T05:46:17;92795.44;;;-5.14;100.00
3250;BME280;1637;42.020;23.992;2023-12-20T05:48:45;92799.63;;;-5.05;100.00
3250;BME280;1637;42.020;23.992;2023-12-20T05:51:12;92789.19;;;-4.88;100.00
3250;BME280;1637;42.020;23.992;2023-12-20T05:53:39;92794.06;;;-5.12;100.00
3250;BME280;1637;42.020;23.992;2023-12-20T05:56:06;92788.69;;;-5.07;100.00
3250;BME280;1637;42.020;23.992;2023-12-20T05:58:33;92782.75;;;-4.90;100.00
3250;BME280;1637;42.020;23.992;2023-12-20T06:00:59;92768.16;;;-5.00;100.00
3250;BME280;1637;42.020;23.992;2023-12-20T06:03:26;92772.59;;;-4.92;100.00
3250;BME280;1637;42.020;23.992;2023-12-20T06:05:54;92769.81;;;-5.04;100.00
3250;BME280;1637;42.020;23.992;2023-12-20T06:08:21;92773.59;;;-5.19;100.00
3250;BME280;1637;42.020;23.992;2023-12-20T06:10:48;92774.38;;;-5.27;100.00
3250;BME280;1637;42.020;23.992;2023-12-20T06:13:15;92769.59;;;-5.33;100.00
3250;BME280;1637;42.020;23.992;2023-12-20T06:15:42;92775.19;;;-5.09;100.00
3250;BME280;1637;42.020;23.992;2023-12-20T06:18:08;92777.19;;;-4.97;100.00
3250;BME280;1637;42.020;23.992;2023-12-20T06:20:35;92779.06;;;-4.80;100.00
3250;BME280;1637;42.020;23.992;2023-12-20T06:23:03;92775.69;;;-4.55;100.00
3250;BME280;1637;42.020;23.992;2023-12-20T06:25:30;92775.09;;;-4.52;100.00
3250;BME280;1637;42.020;23.992;2023-12-20T06:27:57;92775.38;;;-4.28;100.00
3250;BME280;1637;42.020;23.992;2023-12-20T06:30:24;92778.31;;;-4.29;100.00
3250;BME280;1637;42.020;23.992;2023-12-20T06:32:53;92774.94;;;-4.21;100.00
3250;BME280;1637;42.020;23.992;2023-12-20T06:35:20;92774.75;;;-4.07;100.00
3250;BME280;1637;42.020;23.992;2023-12-20T06:37:46;92773.22;;;-4.00;100.00
3250;BME280;1637;42.020;23.992;2023-12-20T06:40:15;92778.03;;;-3.17;100.00
3250;BME280;1637;42.020;23.992;2023-12-20T06:42:42;92781.63;;;-1.76;93.78
3250;BME280;1637;42.020;23.992;2023-12-20T06:45:10;92741.00;;;-1.09;86.95
3250;BME280;1637;42.020;23.992;2023-12-20T06:47:37;92771.78;;;0.07;81.49
3250;BME280;1637;42.020;23.992;2023-12-20T06:50:04;92776.84;;;0.72;77.17
3250;BME280;1637;42.020;23.992;2023-12-20T06:52:33;92783.78;;;0.48;76.99
3250;BME280;1637;42.020;23.992;2023-12-20T06:55:00;92779.56;;;0.75;75.78
3250;BME280;1637;42.020;23.992;2023-12-20T06:57:29;92774.97;;;1.19;73.78
3250;BME280;1637;42.020;23.992;2023-12-20T06:59:56;92770.50;;;1.93;71.16
3250;BME280;1637;42.020;23.992;2023-12-20T07:02:23;92785.75;;;2.81;69.45
3250;BME280;1637;42.020;23.992;2023-12-20T07:04:50;92777.63;;;2.93;68.39
3250;BME280;1637;42.020;23.992;2023-12-20T07:07:16;92777.09;;;3.82;65.16
3250;BME280;1637;42.020;23.992;2023-12-20T07:09:43;92770.09;;;2.95;67.04
3250;BME280;1637;42.020;23.992;2023-12-20T07:12:10;92749.19;;;1.13;70.49
3250;BME280;1637;42.020;23.992;2023-12-20T07:14:38;92751.53;;;-0.05;73.70
3250;BME280;1637;42.020;23.992;2023-12-20T07:17:05;92754.28;;;-0.41;76.47
3250;BME280;1637;42.020;23.992;2023-12-20T07:19:36;92741.25;;;-1.26;79.88
3250;BME280;1637;42.020;23.992;2023-12-20T07:22:03;92718.88;;;-1.69;82.47
3250;BME280;1637;42.020;23.992;2023-12-20T07:24:30;92726.31;;;-1.71;84.23
3250;BME280;1637;42.020;23.992;2023-12-20T07:26:57;92733.09;;;-2.03;85.67
3250;BME280;1637;42.020;23.992;2023-12-20T07:29:23;92727.19;;;-2.12;88.05
3250;BME280;1637;42.020;23.992;2023-12-20T07:31:52;92723.06;;;-2.34;89.76
3250;BME280;1637;42.020;23.992;2023-12-20T07:34:19;92726.75;;;-2.35;91.10
3250;BME280;1637;42.020;23.992;2023-12-20T07:36:46;92725.22;;;-2.03;91.55
3250;BME280;1637;42.020;23.992;2023-12-20T07:39:13;92716.06;;;-1.97;90.17
3250;BME280;1637;42.020;23.992;2023-12-20T07:41:40;92710.69;;;-2.00;89.75
3250;BME280;1637;42.020;23.992;2023-12-20T07:44:06;92711.25;;;-1.95;90.03
3250;BME280;1637;42.020;23.992;2023-12-20T07:46:33;92699.47;;;-1.77;89.57
3250;BME280;1637;42.020;23.992;2023-12-20T07:49:01;92681.75;;;-1.92;90.23
3250;BME280;1637;42.020;23.992;2023-12-20T07:51:28;92700.28;;;-1.52;90.90
3250;BME280;1637;42.020;23.992;2023-12-20T07:53:55;92703.69;;;-1.51;91.00
3250;BME280;1637;42.020;23.992;2023-12-20T07:56:22;92688.78;;;-2.17;94.94
3250;BME280;1637;42.020;23.992;2023-12-20T07:58:48;92697.31;;;-1.75;93.20
3250;BME280;1637;42.020;23.992;2023-12-20T08:01:16;92696.88;;;-1.64;93.77
3250;BME280;1637;42.020;23.992;2023-12-20T08:03:42;92699.63;;;-1.49;95.08
3250;BME280;1637;42.020;23.992;2023-12-20T08:06:11;92695.03;;;-1.15;94.33
3250;BME280;1637;42.020;23.992;2023-12-20T08:08:37;92697.88;;;-1.08;94.72
3250;BME280;1637;42.020;23.992;2023-12-20T08:11:04;92693.06;;;-1.06;99.11
3250;BME280;1637;42.020;23.992;2023-12-20T08:13:31;92687.81;;;-1.06;96.21
3250;BME280;1637;42.020;23.992;2023-12-20T08:15:57;92693.69;;;-0.85;94.41
3250;BME280;1637;42.020;23.992;2023-12-20T08:18:24;92676.38;;;-0.86;93.50
3250;BME280;1637;42.020;23.992;2023-12-20T08:20:51;92685.91;;;-0.93;93.39
3250;BME280;1637;42.020;23.992;2023-12-20T08:23:20;92688.38;;;-0.73;92.93
3250;BME280;1637;42.020;23.992;2023-12-20T08:25:47;92686.28;;;-0.67;93.75
3250;BME280;1637;42.020;23.992;2023-12-20T08:28:14;92678.91;;;-0.49;93.55
3250;BME280;1637;42.020;23.992;2023-12-20T08:30:41;92670.13;;;-0.53;92.93
3250;BME280;1637;42.020;23.992;2023-12-20T08:33:08;92661.91;;;-0.52;92.07
3250;BME280;1637;42.020;23.992;2023-12-20T08:35:38;92662.84;;;-0.16;91.58
3250;BME280;1637;42.020;23.992;2023-12-20T08:38:05;92660.66;;;0.02;90.73
3250;BME280;1637;42.020;23.992;2023-12-20T08:40:33;92656.38;;;0.41;90.01
3250;BME280;1637;42.020;23.992;2023-12-20T08:42:59;92652.47;;;0.50;89.85
3250;BME280;1637;42.020;23.992;2023-12-20T08:45:27;92641.72;;;0.75;89.49
3250;BME280;1637;42.020;23.992;2023-12-20T08:47:54;92647.50;;;0.80;87.92
3250;BME280;1637;42.020;23.992;2023-12-20T08:50:20;92643.06;;;1.19;88.03
3250;BME280;1637;42.020;23.992;2023-12-20T08:52:47;92640.81;;;2.90;85.01
3250;BME280;1637;42.020;23.992;2023-12-20T08:55:14;92651.41;;;5.70;72.37
3250;BME280;1637;42.020;23.992;2023-12-20T08:57:44;92639.53;;;7.11;65.98
3250;BME280;1637;42.020;23.992;2023-12-20T09:00:12;92639.03;;;7.70;62.41
3250;BME280;1637;42.020;23.992;2023-12-20T09:02:39;92633.38;;;9.00;58.34
3250;BME280;1637;42.020;23.992;2023-12-20T09:05:06;92629.81;;;9.92;57.24
3250;BME280;1637;42.020;23.992;2023-12-20T09:07:34;92621.34;;;8.77;60.22
3250;BME280;1637;42.020;23.992;2023-12-20T09:10:00;92616.59;;;8.99;58.24
3250;BME280;1637;42.020;23.992;2023-12-20T09:12:27;92611.09;;;9.17;58.83
3250;BME280;1637;42.020;23.992;2023-12-20T09:14:56;92605.84;;;9.47;58.33
3250;BME280;1637;42.020;23.992;2023-12-20T09:17:23;92592.63;;;7.53;62.04
3250;BME280;1637;42.020;23.992;2023-12-20T09:19:49;92582.56;;;8.58;61.69
3250;BME280;1637;42.020;23.992;2023-12-20T09:22:17;92560.38;;;9.81;57.43
3250;BME280;1637;42.020;23.992;2023-12-20T09:24:44;92570.81;;;9.72;58.31
3250;BME280;1637;42.020;23.992;2023-12-20T09:27:11;92575.63;;;9.84;57.74
3250;BME280;1637;42.020;23.992;2023-12-20T09:29:38;92567.69;;;9.77;57.50
3250;BME280;1637;42.020;23.992;2023-12-20T09:32:06;92560.00;;;9.49;58.84
3250;BME280;1637;42.020;23.992;2023-12-20T09:34:33;92552.81;;;9.76;58.80
3250;BME280;1637;42.020;23.992;2023-12-20T09:37:00;92547.59;;;8.49;61.08
3250;BME280;1637;42.020;23.992;2023-12-20T09:39:28;92552.84;;;9.01;60.44
3250;BME280;1637;42.020;23.992;2023-12-20T09:42:01;92540.97;;;8.65;59.88
3250;BME280;1637;42.020;23.992;2023-12-20T09:44:28;92531.28;;;8.81;62.44
3250;BME280;1637;42.020;23.992;2023-12-20T09:46:56;92531.63;;;9.89;58.83
3250;BME280;1637;42.020;23.992;2023-12-20T09:49:25;92534.72;;;9.87;59.39
3250;BME280;1637;42.020;23.992;2023-12-20T09:51:54;92503.63;;;10.51;58.17
3250;BME280;1637;42.020;23.992;2023-12-20T09:54:21;92524.34;;;10.20;58.75
3250;BME280;1637;42.020;23.992;2023-12-20T09:56:49;92500.53;;;9.72;59.72
3250;BME280;1637;42.020;23.992;2023-12-20T09:59:16;92518.81;;;10.34;59.48
3250;BME280;1637;42.020;23.992;2023-12-20T10:01:43;92507.19;;;9.87;59.71
3250;BME280;1637;42.020;23.992;2023-12-20T10:04:11;92527.69;;;8.99;63.05
3250;BME280;1637;42.020;23.992;2023-12-20T10:06:40;92475.25;;;8.78;64.59
3250;BME280;1637;42.020;23.992;2023-12-20T10:09:07;92485.75;;;7.33;68.70
3250;BME280;1637;42.020;23.992;2023-12-20T10:11:35;92469.97;;;6.69;70.49
3250;BME280;1637;42.020;23.992;2023-12-20T10:14:03;92471.47;;;5.49;74.02
3250;BME280;1637;42.020;23.992;2023-12-20T10:16:30;92458.13;;;4.45;77.78
3250;BME280;1637;42.020;23.992;2023-12-20T10:18:58;92453.53;;;4.31;79.84
3250;BME280;1637;42.020;23.992;2023-12-20T10:21:26;92442.94;;;3.84;81.27
3250;BME280;1637;42.020;23.992;2023-12-20T10:23:55;92448.34;;;3.94;82.21
3250;BME280;1637;42.020;23.992;2023-12-20T10:26:22;92437.88;;;3.64;83.75
3250;BME280;1637;42.020;23.992;2023-12-20T10:28:50;92443.31;;;3.82;82.87
3250;BME280;1637;42.020;23.992;2023-12-20T10:31:28;92427.91;;;3.98;83.54
3250;BME280;1637;42.020;23.992;2023-12-20T10:33:56;92429.03;;;3.97;83.08
3250;BME280;1637;42.020;23.992;2023-12-20T10:36:24;92422.50;;;4.35;82.52
3250;BME280;1637;42.020;23.992;2023-12-20T10:38:52;92421.34;;;4.33;82.46
3250;BME280;1637;42.020;23.992;2023-12-20T10:41:25;92413.78;;;4.35;83.40
3250;BME280;1637;42.020;23.992;2023-12-20T10:43:54;92408.75;;;4.19;83.48
3250;BME280;1637;42.020;23.992;2023-12-20T10:46:21;92409.94;;;4.25;84.89
3250;BME280;1637;42.020;23.992;2023-12-20T10:48:51;92403.66;;;4.58;84.33
3250;BME280;1637;42.020;23.992;2023-12-20T10:51:20;92398.50;;;4.97;82.05
3250;BME280;1637;42.020;23.992;2023-12-20T10:53:48;92391.03;;;5.38;82.38
3250;BME280;1637;42.020;23.992;2023-12-20T10:56:16;92380.81;;;5.90;78.85
3250;BME280;1637;42.020;23.992;2023-12-20T10:58:45;92379.66;;;6.19;78.20
3250;BME280;1637;42.020;23.992;2023-12-20T11:01:13;92408.44;;;6.53;77.06
3250;BME280;1637;42.020;23.992;2023-12-20T11:03:44;92372.06;;;6.14;78.75
3250;BME280;1637;42.020;23.992;2023-12-20T11:06:20;92369.72;;;6.41;77.99
3250;BME280;1637;42.020;23.992;2023-12-20T11:08:55;92364.28;;;6.73;77.53
3250;BME280;1637;42.020;23.992;2023-12-20T11:11:37;92328.66;;;6.46;77.72
3250;BME280;1637;42.020;23.992;2023-12-20T11:14:08;92357.88;;;6.53;77.48
3250;BME280;1637;42.020;23.992;2023-12-20T11:16:38;92355.66;;;6.34;78.19
3250;BME280;1637;42.020;23.992;2023-12-20T11:19:05;92304.84;;;5.82;79.59
3250;BME280;1637;42.020;23.992;2023-12-20T11:21:32;92337.34;;;6.57;79.56
3250;BME280;1637;42.020;23.992;2023-12-20T11:23:59;92338.50;;;6.60;79.90
3250;BME280;1637;42.020;23.992;2023-12-20T11:26:27;92333.19;;;6.56;80.03
3250;BME280;1637;42.020;23.992;2023-12-20T11:28:54;92316.47;;;6.52;80.21
3250;BME280;1637;42.020;23.992;2023-12-20T11:31:23;92321.66;;;6.80;78.75
3250;BME280;1637;42.020;23.992;2023-12-20T11:33:50;92309.97;;;6.64;79.35
3250;BME280;1637;42.020;23.992;2023-12-20T11:36:18;92308.84;;;6.61;79.81
3250;BME280;1637;42.020;23.992;2023-12-20T11:38:56;92312.72;;;6.39;80.92
3250;BME280;1637;42.020;23.992;2023-12-20T11:41:23;92308.13;;;6.46;81.75
3250;BME280;1637;42.020;23.992;2023-12-20T11:43:52;92302.09;;;6.28;81.67
3250;BME280;1637;42.020;23.992;2023-12-20T11:46:19;92293.66;;;6.51;81.84
3250;BME280;1637;42.020;23.992;2023-12-20T11:48:48;92302.19;;;6.98;80.36
3250;BME280;1637;42.020;23.992;2023-12-20T11:51:15;92267.34;;;6.67;80.68
3250;BME280;1637;42.020;23.992;2023-12-20T11:53:42;92291.25;;;6.81;79.78
3250;BME280;1637;42.020;23.992;2023-12-20T11:56:09;92282.38;;;7.06;79.81
3250;BME280;1637;42.020;23.992;2023-12-20T11:58:36;92278.09;;;7.15;79.77
3250;BME280;1637;42.020;23.992;2023-12-20T12:01:04;92275.31;;;6.74;81.21
3250;BME280;1637;42.020;23.992;2023-12-20T12:03:32;92269.66;;;6.65;82.02
3250;BME280;1637;42.020;23.992;2023-12-20T12:06:01;92271.03;;;6.87;82.82
3250;BME280;1637;42.020;23.992;2023-12-20T12:08:29;92271.47;;;6.82;82.52
3250;BME280;1637;42.020;23.992;2023-12-20T12:10:56;92261.50;;;6.97;82.49
3250;BME280;1637;42.020;23.992;2023-12-20T12:13:23;92259.09;;;7.13;81.95
3250;BME280;1637;42.020;23.992;2023-12-20T12:15:53;92250.34;;;6.54;84.22
3250;BME280;1637;42.020;23.992;2023-12-20T12:18:19;92262.31;;;6.87;84.75
3250;BME280;1637;42.020;23.992;2023-12-20T12:20:47;92245.78;;;7.10;83.38
3250;BME280;1637;42.020;23.992;2023-12-20T12:23:22;92256.00;;;7.18;82.71
3250;BME280;1637;42.020;23.992;2023-12-20T12:25:50;92259.84;;;7.14;81.97
3250;BME280;1637;42.020;23.992;2023-12-20T12:28:16;92259.06;;;7.17;82.03
3250;BME280;1637;42.020;23.992;2023-12-20T12:30:56;92251.31;;;7.33;81.77
3250;BME280;1637;42.020;23.992;2023-12-20T12:33:23;92240.75;;;7.26;82.00
3250;BME280;1637;42.020;23.992;2023-12-20T12:35:51;92247.38;;;7.52;82.00
3250;BME280;1637;42.020;23.992;2023-12-20T12:38:21;92246.03;;;7.30;82.32
3250;BME280;1637;42.020;23.992;2023-12-20T12:40:49;92244.66;;;7.11;83.42
3250;BME280;1637;42.020;23.992;2023-12-20T12:43:16;92240.16;;;7.01;84.10
3250;BME280;1637;42.020;23.992;2023-12-20T12:45:42;92240.53;;;7.03;84.59
3250;BME280;1637;42.020;23.992;2023-12-20T12:48:09;92235.31;;;7.37;83.21
3250;BME280;1637;42.020;23.992;2023-12-20T12:50:36;92228.31;;;7.53;82.41
3250;BME280;1637;42.020;23.992;2023-12-20T12:53:03;92227.31;;;7.37;82.64
3250;BME280;1637;42.020;23.992;2023-12-20T12:55:31;92216.28;;;7.38;82.74
3250;BME280;1637;42.020;23.992;2023-12-20T12:57:59;92231.56;;;7.31;83.05
3250;BME280;1637;42.020;23.992;2023-12-20T13:00:26;92217.66;;;7.09;84.08
3250;BME280;1637;42.020;23.992;2023-12-20T13:02:53;92226.63;;;6.77;86.02
3250;BME280;1637;42.020;23.992;2023-12-20T13:05:20;92224.25;;;6.90;86.30
3250;BME280;1637;42.020;23.992;2023-12-20T13:07:47;92223.84;;;6.95;86.35
3250;BME280;1637;42.020;23.992;2023-12-20T13:10:13;92224.31;;;6.83;87.74